»·PEaware :: AAL1729 KSBA-KPHX

AAL1729 :: KSBA-KPHX

FLIGHT INFORMATION

Flight Status: Arrived
Operator:
American Airlines
More flights by this operator :: More flights under this callsign
Pilot: Alex K. (14822)
Aircraft: BOEING 737-800
(B738)
More flights by this aircraft type
Origin: KSBA Santa Barbara Mun
United States
Destination: KPHX Phoenix Sky Harbor Intl
United States
More flights between these airports :: More routes between these airports
Route: +MISHN2 KPTIN BENET SXC TRM BLH HYDRR1
File this flight plan on PilotEdge
Remarks: RMK / SIMBRIEF
Altitude:
(Current/Filed)
35,000ft
Speed:
(Current/Filed)
446kts
Departed: 06-Jul-19 09:12 AM
Arrived: 06-Jul-19 10:26 AM
Distance/Time
Traveled:
395nm/1:13
Distance/Time
To Go:
Arrived

Flight Plot

Page will automatically refresh every two minutes.

Flight plan parsing failed; only flown route is shown


Map Options




Map Legend


Flown Route
Filed Route
Departure Airport
Arrival Airport
Navaid (VOR, NDB)
Fix

Horizontal Profiles

Position Reports

Time Latitude Longitude Heading Altitude Ground
Speed
06-Jul-19 08:27 34.424272 -119.837007 105 21ft 0kts
06-Jul-19 08:28 34.424272 -119.837007 105 21ft 0kts
06-Jul-19 08:29 34.424272 -119.837007 105 21ft 0kts
06-Jul-19 08:30 34.424272 -119.837007 105 20ft 0kts
06-Jul-19 08:31 34.424272 -119.837007 105 20ft 0kts
06-Jul-19 08:32 34.424272 -119.837007 105 20ft 0kts
06-Jul-19 08:33 34.424272 -119.837007 105 20ft 0kts
06-Jul-19 08:34 34.424272 -119.837007 105 20ft 0kts
06-Jul-19 08:35 34.424272 -119.837007 105 20ft 0kts
06-Jul-19 08:36 34.424272 -119.837007 105 20ft 0kts
06-Jul-19 08:37 34.424272 -119.837007 105 20ft 0kts
06-Jul-19 08:38 34.424272 -119.837007 105 20ft 0kts
06-Jul-19 08:39 34.424272 -119.837007 105 20ft 0kts
06-Jul-19 08:40 34.424272 -119.837007 105 20ft 0kts
06-Jul-19 08:41 34.424272 -119.837007 105 20ft 0kts
06-Jul-19 08:42 34.424272 -119.837007 105 20ft 0kts
06-Jul-19 08:43 34.424272 -119.837007 105 20ft 0kts
06-Jul-19 08:44 34.424272 -119.837007 105 20ft 0kts
06-Jul-19 08:45 34.424272 -119.837007 105 20ft 0kts
06-Jul-19 08:46 34.424272 -119.837007 105 20ft 0kts
06-Jul-19 08:47 34.424272 -119.837007 105 20ft 0kts
06-Jul-19 08:48 34.424272 -119.837007 105 20ft 0kts
06-Jul-19 08:49 34.424272 -119.837007 105 20ft 0kts
06-Jul-19 08:50 34.424272 -119.837007 105 20ft 0kts
06-Jul-19 08:51 34.424272 -119.837007 105 20ft 0kts
06-Jul-19 08:52 34.424272 -119.837007 105 20ft 0kts
06-Jul-19 08:53 34.424272 -119.837007 105 20ft 0kts
06-Jul-19 08:54 34.424272 -119.837007 105 20ft 0kts
06-Jul-19 08:55 34.424272 -119.837007 105 20ft 0kts
06-Jul-19 08:56 34.424272 -119.837007 105 20ft 0kts
06-Jul-19 08:57 34.424272 -119.837007 105 20ft 0kts
06-Jul-19 08:58 34.424272 -119.837007 105 20ft 0kts
06-Jul-19 08:59 34.424272 -119.837007 105 20ft 0kts
06-Jul-19 09:00 34.424272 -119.837007 105 20ft 0kts
06-Jul-19 09:01 34.424272 -119.837007 105 20ft 0kts
06-Jul-19 09:02 34.424324 -119.837238 105 21ft 0kts
06-Jul-19 09:03 34.424053 -119.837555 343 21ft 1kts
06-Jul-19 09:04 34.424032 -119.837547 344 21ft 0kts
06-Jul-19 09:05 34.424032 -119.837547 344 21ft 0kts
06-Jul-19 09:06 34.424032 -119.837548 344 21ft 0kts
06-Jul-19 09:07 34.424032 -119.837548 344 21ft 0kts
06-Jul-19 09:08 34.426002 -119.838163 343 21ft 15kts
06-Jul-19 09:09 34.426761 -119.835638 90 20ft 12kts
06-Jul-19 09:10 34.427910 -119.835205 271 21ft 24kts
06-Jul-19 09:11 34.426790 -119.881179 265 1390ft 177kts
06-Jul-19 09:12 34.392566 -119.932331 195 2497ft 239kts
06-Jul-19 09:13 34.328089 -119.916773 133 5102ft 267kts
06-Jul-19 09:14 34.274887 -119.851277 134 7931ft 279kts
06-Jul-19 09:15 34.218633 -119.782742 130 10419ft 298kts
06-Jul-19 09:16 34.199443 -119.679800 93 12403ft 332kts
06-Jul-19 09:17 34.194358 -119.566124 93 15144ft 346kts
06-Jul-19 09:18 34.192502 -119.447382 91 17860ft 360kts
06-Jul-19 09:19 34.159419 -119.334476 135 20289ft 372kts
06-Jul-19 09:20 34.074866 -119.257671 144 22515ft 386kts
06-Jul-19 09:21 33.986488 -119.180292 144 24525ft 399kts
06-Jul-19 09:22 33.895238 -119.100579 144 26389ft 410kts
06-Jul-19 09:23 33.801461 -119.018881 144 28081ft 421kts
06-Jul-19 09:24 33.705363 -118.935392 144 29636ft 432kts
06-Jul-19 09:25 33.606950 -118.848927 137 31094ft 440kts
06-Jul-19 09:26 33.537652 -118.728791 121 32769ft 439kts
06-Jul-19 09:27 33.472786 -118.604896 122 34332ft 436kts
06-Jul-19 09:28 33.408182 -118.482290 122 35654ft 434kts
06-Jul-19 09:29 33.383497 -118.346254 83 36728ft 435kts
06-Jul-19 09:30 33.400782 -118.206399 81 37604ft 437kts
06-Jul-19 09:31 33.418478 -118.059158 81 37781ft 454kts
06-Jul-19 09:32 33.436332 -117.907077 80 38036ft 469kts
06-Jul-19 09:33 33.454417 -117.753068 80 38597ft 475kts
06-Jul-19 09:34 33.472079 -117.599216 80 39100ft 482kts
06-Jul-19 09:35 33.490578 -117.438235 81 39104ft 492kts
06-Jul-19 09:36 33.508323 -117.280834 82 37798ft 481kts
06-Jul-19 09:37 33.525888 -117.123807 82 36147ft 475kts
06-Jul-19 09:38 33.543061 -116.968229 82 35095ft 473kts
06-Jul-19 09:39 33.560064 -116.812312 83 35080ft 476kts
06-Jul-19 09:40 33.576792 -116.657048 83 35061ft 476kts
06-Jul-19 09:41 33.593380 -116.501224 83 35062ft 475kts
06-Jul-19 09:42 33.609843 -116.344668 83 35000ft 475kts
06-Jul-19 09:44 33.626362 -116.185743 84 34973ft 478kts
06-Jul-19 09:45 33.625764 -116.026878 92 34974ft 477kts
06-Jul-19 09:46 33.622824 -115.868910 92 34980ft 475kts
06-Jul-19 09:47 33.619694 -115.711315 92 34985ft 475kts
06-Jul-19 09:48 33.616351 -115.553092 92 34984ft 476kts
06-Jul-19 09:49 33.612800 -115.394506 92 34990ft 476kts
06-Jul-19 09:50 33.609061 -115.236056 93 34993ft 475kts
06-Jul-19 09:51 33.605110 -115.077834 93 35001ft 476kts
06-Jul-19 09:52 33.600947 -114.919021 93 35007ft 475kts
06-Jul-19 09:53 33.596237 -114.762732 97 34869ft 471kts
06-Jul-19 09:54 33.567280 -114.612791 104 33908ft 467kts
06-Jul-19 09:55 33.537720 -114.460862 104 32703ft 471kts
06-Jul-19 09:56 33.507388 -114.306222 104 29094ft 496kts
06-Jul-19 09:57 33.477306 -114.153834 104 26341ft 441kts
06-Jul-19 09:58 33.450184 -114.018813 104 25024ft 420kts
06-Jul-19 09:59 33.422720 -113.882345 104 25027ft 421kts
06-Jul-19 10:00 33.395323 -113.746105 104 25036ft 421kts
06-Jul-19 10:01 33.367938 -113.610733 104 25045ft 422kts
06-Jul-19 10:02 33.340765 -113.477165 104 24408ft 400kts
06-Jul-19 10:03 33.318473 -113.352248 102 20866ft 399kts
06-Jul-19 10:03 33.300005 -113.244934 102 17915ft 381kts
06-Jul-19 10:04 33.282462 -113.126458 100 16091ft 349kts
06-Jul-19 10:06 33.275994 -112.997549 89 14103ft 320kts
06-Jul-19 10:06 33.278348 -112.911910 90 13010ft 305kts
06-Jul-19 10:07 33.284782 -112.808626 71 11672ft 310kts
06-Jul-19 10:08 33.319416 -112.717713 67 10408ft 295kts
06-Jul-19 10:09 33.343619 -112.629334 93 9431ft 270kts
06-Jul-19 10:10 33.337428 -112.540549 95 8428ft 268kts
06-Jul-19 10:11 33.330621 -112.449870 96 11015ft 296kts
06-Jul-19 10:12 33.323678 -112.352577 90 11008ft 295kts
06-Jul-19 10:13 33.332848 -112.255556 85 11007ft 298kts
06-Jul-19 10:14 33.341861 -112.157459 84 9576ft 296kts
06-Jul-19 10:15 33.347634 -112.068460 92 8715ft 247kts
06-Jul-19 10:16 33.346318 -111.987997 90 7179ft 241kts
06-Jul-19 10:17 33.344695 -111.910676 91 5395ft 233kts
06-Jul-19 10:18 33.344596 -111.835348 89 4021ft 227kts
06-Jul-19 10:19 33.362240 -111.768595 16 4041ft 229kts
06-Jul-19 10:20 33.422125 -111.781854 311 3561ft 207kts
06-Jul-19 10:21 33.439648 -111.840529 275 3026ft 166kts
06-Jul-19 10:22 33.440666 -111.894845 270 2757ft 162kts
06-Jul-19 10:23 33.440754 -111.947809 270 1908ft 161kts
06-Jul-19 10:24 33.440806 -111.996736 270 1145ft 144kts
06-Jul-19 10:25 33.439729 -112.010437 95 1138ft 9kts
06-Jul-19 10:26 33.439721 -112.006064 90 1139ft 20kts
06-Jul-19 10:27 33.439157 -112.000671 160 1139ft 7kts
06-Jul-19 10:28 33.438419 -111.999004 210 1139ft 4kts
06-Jul-19 10:29 33.438286 -111.999097 210 1138ft 0kts
06-Jul-19 10:30 33.438286 -111.999097 210 1138ft 0kts

Navigation Log

Ident Type
Flight plan parsing failed, navigation log unavailable